Time;durP1;ratioP1;P1;durP2;ratioP2;P2;SDS_P1;SDS_P2;PMS_P1;PMS_P2;Temp;Humidity;BMP_temperature;BMP_pressure;BME280_temperature;BME280_humidity;BME280_pressure;Samples;Min_cycle;Max_cycle;Signal;HPM_P1;HPM_P2
2022/08/04 00:00:11;;;;;;;4.97;2.42;;;24.10;77.40;;;;;;4992631;28;20033;-86
2022/08/04 00:02:43;;;;;;;4.55;2.20;;;24.10;77.60;;;;;;4990315;28;20033;-87
2022/08/04 00:05:28;;;;;;;3.33;2.30;;;24.00;78.00;;;;;;4986720;28;20058;-85
2022/08/04 00:08:14;;;;;;;4.47;2.17;;;23.90;78.30;;;;;;4988466;28;20102;-84
2022/08/04 00:10:43;;;;;;;3.42;2.22;;;23.90;78.60;;;;;;4990172;28;20526;-86
2022/08/04 00:13:14;;;;;;;4.53;2.40;;;23.80;78.70;;;;;;5009243;28;20024;-85
2022/08/04 00:15:41;;;;;;;5.53;2.22;;;23.80;78.70;;;;;;4984637;28;20479;-85
2022/08/04 00:18:08;;;;;;;4.00;2.40;;;23.80;78.90;;;;;;4987911;28;20057;-86
2022/08/04 00:20:40;;;;;;;4.85;2.58;;;23.70;79.10;;;;;;4990860;28;20018;-86
2022/08/04 00:23:06;;;;;;;3.47;2.10;;;;;;;;;;4988701;28;20041;-86
2022/08/04 00:25:32;;;;;;;3.05;2.30;;;;;;;;;;4993680;28;20532;-85
2022/08/04 00:28:00;;;;;;;5.25;2.33;;;23.60;79.50;;;;;;4986457;28;20026;-84
2022/08/04 00:30:26;;;;;;;3.85;2.45;;;23.60;80.00;;;;;;4976724;28;20073;-86
2022/08/04 00:32:53;;;;;;;3.38;2.63;;;23.50;80.30;;;;;;4985041;28;20189;-86
2022/08/04 00:35:20;;;;;;;3.85;2.33;;;;;;;;;;4987179;28;20034;-84
2022/08/04 00:37:46;;;;;;;3.28;2.08;;;23.50;80.20;;;;;;4987666;28;20060;-86
2022/08/04 00:40:42;;;;;;;4.45;2.17;;;23.40;80.30;;;;;;4987798;28;20029;-85
2022/08/04 00:43:14;;;;;;;4.82;2.08;;;23.40;80.70;;;;;;5006731;28;20491;-85
2022/08/04 00:46:06;;;;;;;5.53;2.35;;;23.40;80.60;;;;;;4989149;28;20116;-86
2022/08/04 00:49:03;;;;;;;3.97;2.58;;;23.30;81.20;;;;;;4991342;28;20045;-88
2022/08/04 00:51:50;;;;;;;7.82;4.63;;;23.30;81.20;;;;;;5014784;28;20117;-83
2022/08/04 00:54:47;;;;;;;5.35;2.45;;;23.20;81.40;;;;;;4988797;28;20026;-85
2022/08/04 00:57:34;;;;;;;3.40;2.22;;;23.20;81.60;;;;;;4991081;28;20026;-85
2022/08/04 01:00:10;;;;;;;5.00;2.75;;;23.20;81.80;;;;;;4985835;28;20030;-85
2022/08/04 01:02:37;;;;;;;6.43;2.83;;;;;;;;;;4992850;28;20029;-85
2022/08/04 01:05:16;;;;;;;3.10;2.40;;;23.80;82.40;;;;;;4991083;28;20018;-85
2022/08/04 01:07:42;;;;;;;3.13;2.30;;;;;;;;;;4997308;28;20061;-84
2022/08/04 01:10:19;;;;;;;3.55;2.40;;;23.10;82.30;;;;;;4988034;28;20041;-85
2022/08/04 01:13:11;;;;;;;3.03;2.30;;;23.10;82.80;;;;;;4994168;28;20465;-85
2022/08/04 01:15:52;;;;;;;4.10;2.40;;;23.00;82.80;;;;;;5011219;28;20449;-84
2022/08/04 01:18:26;;;;;;;4.82;2.40;;;23.00;82.90;;;;;;5006699;28;20021;-85
2022/08/04 01:20:58;;;;;;;4.22;2.50;;;;;;;;;;5007266;28;20040;-85
2022/08/04 01:23:24;;;;;;;4.72;2.55;;;;;;;;;;4994602;28;20079;-86
2022/08/04 01:26:16;;;;;;;3.67;2.20;;;23.00;83.40;;;;;;5011390;28;20030;-85
2022/08/04 01:28:52;;;;;;;3.47;2.53;;;22.90;84.00;;;;;;4989720;28;20030;-84
2022/08/04 01:31:20;;;;;;;3.40;2.28;;;22.90;84.20;;;;;;5011522;28;20068;-86
2022/08/04 01:33:49;;;;;;;4.45;2.40;;;22.80;84.50;;;;;;5006334;28;20517;-83
2022/08/04 01:36:15;;;;;;;5.30;2.92;;;;;;;;;;4995188;28;20025;-86
2022/08/04 01:38:43;;;;;;;6.20;2.90;;;22.80;85.30;;;;;;4997119;28;20030;-85
2022/08/04 01:41:13;;;;;;;4.25;3.00;;;22.80;85.70;;;;;;4991968;28;20084;-86
2022/08/04 01:43:40;;;;;;;;;;;22.80;86.00;;;;;;4992668;28;20046;-85
2022/08/04 01:46:05;;;;;;;3.72;2.80;;;22.70;86.10;;;;;;5008949;28;20366;-85
2022/08/04 01:48:33;;;;;;;5.75;2.80;;;22.70;86.40;;;;;;4993373;28;20045;-84
2022/08/04 01:51:03;;;;;;;5.75;3.15;;;22.70;86.80;;;;;;4993865;28;20042;-85
2022/08/04 01:53:32;;;;;;;4.60;2.90;;;22.70;87.00;;;;;;4993351;28;20038;-86
2022/08/04 01:56:00;;;;;;;4.85;2.75;;;22.60;87.30;;;;;;5016722;28;20069;-86
2022/08/04 01:58:29;;;;;;;3.47;2.40;;;22.60;87.20;;;;;;4986812;28;20030;-85
2022/08/04 02:01:02;;;;;;;4.93;2.35;;;22.60;87.20;;;;;;4985917;28;20037;-84
2022/08/04 02:03:29;;;;;;;4.43;2.92;;;22.60;87.10;;;;;;4992528;28;20060;-86
2022/08/04 02:06:40;;;;;;;3.50;2.60;;;22.60;87.50;;;;;;4992928;28;20030;-86
2022/08/04 02:09:30;;;;;;;3.72;2.72;;;22.50;87.60;;;;;;4988936;28;20069;-86
2022/08/04 02:12:18;;;;;;;5.60;2.60;;;22.40;87.90;;;;;;4991693;28;20057;-85
2022/08/04 02:15:11;;;;;;;3.65;2.55;;;22.40;88.20;;;;;;4994552;28;20057;-87
2022/08/04 02:17:42;;;;;;;6.95;2.78;;;22.40;88.70;;;;;;4983849;28;20381;-86
2022/08/04 02:20:18;;;;;;;5.90;2.70;;;22.40;89.10;;;;;;4990885;28;20069;-85
2022/08/04 02:22:52;;;;;;;4.80;2.58;;;22.30;89.50;;;;;;4991563;28;20029;-86
2022/08/04 02:25:23;;;;;;;3.55;2.50;;;22.30;89.80;;;;;;4993300;28;20084;-85
2022/08/04 02:28:04;;;;;;;3.78;2.60;;;22.20;89.70;;;;;;4992257;28;20036;-86
2022/08/04 02:31:03;;;;;;;4.05;2.60;;;22.20;90.00;;;;;;5005758;28;20056;-85
2022/08/04 02:33:40;;;;;;;3.35;2.60;;;22.20;90.00;;;;;;4979078;28;20033;-88
2022/08/04 02:36:21;;;;;;;4.78;2.80;;;22.20;90.10;;;;;;4997220;28;20062;-84
2022/08/04 02:39:01;;;;;;;5.95;2.60;;;22.10;90.40;;;;;;4992306;28;20038;-85
2022/08/04 02:41:27;;;;;;;;;;;22.10;90.40;;;;;;4995413;28;20053;-84
2022/08/04 02:44:02;;;;;;;5.07;2.88;;;22.10;90.70;;;;;;4987515;28;19918;-86
2022/08/04 02:46:29;;;;;;;5.00;2.42;;;22.00;90.80;;;;;;4987145;28;20037;-86
2022/08/04 02:48:55;;;;;;;5.50;2.65;;;;;;;;;;4994671;28;20029;-85
2022/08/04 02:51:27;;;;;;;3.50;2.53;;;21.90;91.10;;;;;;4981380;28;20847;-86
2022/08/04 02:53:55;;;;;;;4.90;2.63;;;21.90;91.20;;;;;;4980795;28;20104;-85
2022/08/04 02:56:21;;;;;;;4.72;2.60;;;21.90;91.40;;;;;;4986395;28;20021;-85
2022/08/04 02:58:51;;;;;;;4.82;2.63;;;22.00;91.40;;;;;;4997568;28;20186;-83
2022/08/04 03:01:17;;;;;;;5.55;2.78;;;21.90;91.50;;;;;;4996948;28;20026;-85
2022/08/04 03:04:12;;;;;;;4.18;2.47;;;21.90;91.40;;;;;;5011065;28;20403;-82
2022/08/04 03:07:28;;;;;;;4.63;2.65;;;21.90;91.50;;;;;;4991521;28;20037;-84
2022/08/04 03:10:09;;;;;;;6.35;2.75;;;21.80;91.90;;;;;;4990686;28;20037;-84
2022/08/04 03:12:53;;;;;;;4.50;2.80;;;21.70;92.10;;;;;;4999824;28;20022;-83
2022/08/04 03:15:50;;;;;;;4.93;2.63;;;21.70;92.30;;;;;;5000042;28;20030;-83
2022/08/04 03:18:43;;;;;;;4.95;2.90;;;21.70;92.50;;;;;;5002109;28;20378;-83
2022/08/04 03:21:47;;;;;;;6.63;2.75;;;21.70;92.70;;;;;;4999875;28;20377;-82
2022/08/04 03:24:50;;;;;;;4.00;2.38;;;21.70;92.60;;;;;;4994782;28;20437;-82
2022/08/04 03:27:40;;;;;;;4.35;2.47;;;21.80;92.90;;;;;;5013081;28;20025;-87
2022/08/04 03:30:07;;;;;;;;;;;21.60;92.90;;;;;;5019161;28;20040;-83
2022/08/04 03:32:33;;;;;;;4.78;2.80;;;;;;;;;;4999621;28;20286;-82
2022/08/04 03:35:37;;;;;;;3.42;2.50;;;21.60;93.20;;;;;;5002075;28;20113;-83
2022/08/04 03:38:47;;;;;;;5.00;2.88;;;21.60;93.60;;;;;;5015279;28;20038;-84
2022/08/04 03:41:35;;;;;;;4.43;3.05;;;21.50;93.60;;;;;;4999295;28;20060;-84
2022/08/04 03:44:28;;;;;;;4.10;2.60;;;21.40;94.10;;;;;;4992300;28;20031;-83
2022/08/04 03:47:37;;;;;;;5.00;3.03;;;21.40;94.40;;;;;;5004477;28;20058;-82
2022/08/04 03:50:18;;;;;;;3.33;2.78;;;;;;;;;;4996895;28;20402;-84
2022/08/04 03:53:08;;;;;;;5.65;3.00;;;21.30;94.90;;;;;;4997622;28;20057;-83
2022/08/04 03:56:08;;;;;;;5.47;3.17;;;21.30;95.30;;;;;;4993534;28;20091;-84
2022/08/04 03:58:41;;;;;;;4.03;2.67;;;;;;;;;;4994752;28;20517;-82
2022/08/04 04:01:37;;;;;;;5.25;3.22;;;21.30;95.40;;;;;;5000165;28;20048;-82
2022/08/04 04:04:28;;;;;;;5.22;3.03;;;21.30;95.60;;;;;;5005802;28;20041;-83
2022/08/04 04:07:29;;;;;;;4.70;2.97;;;21.30;95.70;;;;;;4994169;28;20075;-85
2022/08/04 04:09:58;;;;;;;7.35;2.83;;;21.30;95.80;;;;;;4997809;28;20030;-83
2022/08/04 04:13:02;;;;;;;4.70;2.95;;;21.20;95.80;;;;;;5009935;28;20609;-84
2022/08/04 04:16:08;;;;;;;6.55;3.13;;;21.20;96.00;;;;;;4993636;28;20042;-84
2022/08/04 04:19:16;;;;;;;9.27;3.33;;;21.20;96.50;;;;;;5004278;28;20108;-83
2022/08/04 04:22:11;;;;;;;5.18;3.05;;;21.20;96.80;;;;;;5011788;28;20041;-85
2022/08/04 04:25:02;;;;;;;6.72;3.20;;;21.30;97.10;;;;;;4987999;28;20112;-85
2022/08/04 04:27:30;;;;;;;5.63;3.35;;;21.20;97.20;;;;;;5013220;28;20036;-85
2022/08/04 04:30:04;;;;;;;6.75;3.10;;;21.20;97.20;;;;;;5008345;28;20029;-83
2022/08/04 04:32:49;;;;;;;6.50;3.40;;;21.20;97.50;;;;;;5011593;28;20030;-83
2022/08/04 04:35:40;;;;;;;4.80;3.63;;;21.30;97.60;;;;;;4994418;28;20042;-84
2022/08/04 04:38:42;;;;;;;4.97;3.40;;;21.30;97.50;;;;;;4989694;28;20109;-83
2022/08/04 04:41:38;;;;;;;6.10;3.42;;;21.30;97.70;;;;;;5007875;28;20096;-85
2022/08/04 04:44:28;;;;;;;5.68;3.28;;;21.30;97.90;;;;;;4998800;28;20414;-85
2022/08/04 04:46:57;;;;;;;;;;;21.20;98.00;;;;;;4989874;28;20026;-83
2022/08/04 04:49:48;;;;;;;7.63;3.25;;;21.20;98.20;;;;;;4996595;28;19914;-85
2022/08/04 04:52:14;;;;;;;6.47;3.20;;;21.20;98.30;;;;;;4994740;28;20029;-84
2022/08/04 04:54:52;;;;;;;5.70;3.22;;;21.20;98.40;;;;;;4995617;28;20080;-87
2022/08/04 04:57:20;;;;;;;9.20;3.60;;;21.20;98.60;;;;;;4996127;28;20102;-84
2022/08/04 04:59:57;;;;;;;6.60;3.58;;;21.10;98.90;;;;;;5004869;28;20096;-85
2022/08/04 05:02:54;;;;;;;9.93;3.75;;;21.10;99.10;;;;;;5015036;28;20021;-83
2022/08/04 05:05:25;;;;;;;6.22;3.40;;;21.10;99.30;;;;;;4995281;28;20058;-85
2022/08/04 05:07:53;;;;;;;8.25;3.53;;;21.20;99.40;;;;;;4996114;28;20061;-85
2022/08/04 05:10:18;;;;;;;9.23;3.80;;;21.20;99.30;;;;;;5000137;28;20022;-81
2022/08/04 05:12:59;;;;;;;10.80;3.80;;;21.20;99.20;;;;;;5001752;28;20026;-83
2022/08/04 05:15:33;;;;;;;7.50;3.65;;;21.30;99.20;;;;;;5012460;28;20620;-85
2022/08/04 05:18:01;;;;;;;6.95;3.88;;;21.40;99.10;;;;;;4999844;28;20471;-82
2022/08/04 05:20:44;;;;;;;9.77;4.05;;;21.50;98.80;;;;;;5008173;28;20033;-82
2022/08/04 05:23:15;;;;;;;8.80;3.90;;;21.60;98.90;;;;;;4991902;28;20053;-86
2022/08/04 05:25:58;;;;;;;8.10;3.95;;;21.60;98.80;;;;;;5007038;28;20032;-84
2022/08/04 05:28:38;;;;;;;9.55;4.05;;;21.70;98.50;;;;;;4986497;28;20082;-83
2022/08/04 05:31:23;;;;;;;10.13;4.25;;;21.80;98.20;;;;;;4988352;28;20041;-84
2022/08/04 05:34:02;;;;;;;6.85;4.13;;;21.80;98.10;;;;;;4990939;28;20034;-82
2022/08/04 05:36:40;;;;;;;10.52;4.03;;;21.80;98.30;;;;;;4990341;28;20031;-84
2022/08/04 05:39:09;;;;;;;9.15;4.10;;;22.70;96.60;;;;;;4992774;28;20038;-83
2022/08/04 05:41:39;;;;;;;6.57;3.95;;;22.70;96.80;;;;;;5008180;28;20306;-84
2022/08/04 05:44:08;;;;;;;9.05;3.70;;;23.90;93.60;;;;;;5009390;28;20505;-84
2022/08/04 05:46:35;;;;;;;12.88;4.90;;;24.10;93.80;;;;;;4992691;28;20028;-83
2022/08/04 05:49:02;;;;;;;10.45;3.95;;;24.40;92.40;;;;;;5010614;23;20145;-84
2022/08/04 05:51:29;;;;;;;11.20;3.95;;;24.40;92.80;;;;;;4976088;28;20034;-85
2022/08/04 05:53:57;;;;;;;7.30;3.72;;;24.50;93.00;;;;;;4992855;28;20027;-84
2022/08/04 05:56:23;;;;;;;7.25;4.22;;;24.90;92.20;;;;;;4977867;28;20449;-84
2022/08/04 05:58:51;;;;;;;6.13;3.20;;;25.70;90.30;;;;;;4988108;28;20034;-82
2022/08/04 06:01:17;;;;;;;7.63;3.88;;;;;;;;;;4977047;28;20042;-84
2022/08/04 06:03:46;;;;;;;5.30;3.60;;;26.90;85.50;;;;;;4969317;28;20033;-81
2022/08/04 06:06:14;;;;;;;5.97;3.40;;;26.60;84.50;;;;;;4975981;28;20110;-82
2022/08/04 06:08:40;;;;;;;7.88;3.67;;;;;;;;;;4985256;28;20477;-83
2022/08/04 06:11:09;;;;;;;8.02;3.67;;;26.20;85.30;;;;;;4988568;28;20030;-80
2022/08/04 06:13:46;;;;;;;7.97;4.13;;;26.30;87.10;;;;;;4987681;28;20046;-84
2022/08/04 06:16:15;;;;;;;7.10;3.72;;;25.60;87.10;;;;;;4976052;28;20548;-84
2022/08/04 06:18:46;;;;;;;6.63;3.30;;;25.10;88.20;;;;;;4972239;28;20036;-82
2022/08/04 06:21:13;;;;;;;10.90;3.80;;;24.90;89.20;;;;;;4955759;28;20058;-81
2022/08/04 06:23:39;;;;;;;8.80;3.33;;;;;;;;;;4986791;28;20023;-85
2022/08/04 06:26:08;;;;;;;9.75;4.00;;;24.40;90.90;;;;;;4995624;28;20031;-81
2022/08/04 06:28:34;;;;;;;6.20;3.72;;;;;;;;;;4981257;28;20049;-82
2022/08/04 06:31:02;;;;;;;8.48;4.00;;;24.10;91.70;;;;;;4973418;28;20108;-82
2022/08/04 06:33:35;;;;;;;8.13;3.70;;;24.30;92.00;;;;;;4971246;28;20023;-82
2022/08/04 06:36:04;;;;;;;7.15;3.63;;;24.20;91.90;;;;;;4982788;28;20026;-84
2022/08/04 06:38:31;;;;;;;9.73;3.88;;;24.10;91.70;;;;;;4994461;28;20032;-81
2022/08/04 06:40:57;;;;;;;10.40;3.47;;;;;;;;;;4968004;28;20061;-81
2022/08/04 06:43:25;;;;;;;5.07;3.60;;;24.10;91.60;;;;;;4991402;28;20483;-82
2022/08/04 06:45:52;;;;;;;8.43;3.88;;;24.20;91.90;;;;;;4990182;28;20022;-82
2022/08/04 06:48:18;;;;;;;8.60;3.58;;;24.30;91.80;;;;;;4978532;28;20098;-82
2022/08/04 06:50:47;;;;;;;6.40;3.30;;;24.40;91.80;;;;;;4978248;28;20058;-81
2022/08/04 06:53:13;;;;;;;5.93;3.53;;;;;;;;;;4993395;28;20039;-81
2022/08/04 06:55:45;;;;;;;8.95;3.70;;;24.50;91.40;;;;;;5000858;28;20130;-82
2022/08/04 06:58:11;;;;;;;8.77;3.58;;;24.70;91.50;;;;;;4995596;28;20038;-80
2022/08/04 07:00:39;;;;;;;10.60;3.80;;;24.90;91.20;;;;;;4986494;28;20129;-83
2022/08/04 07:03:06;;;;;;;10.00;3.10;;;24.30;90.60;;;;;;4986658;28;20026;-83
2022/08/04 07:05:32;;;;;;;6.63;3.17;;;25.20;90.60;;;;;;4979965;28;20022;-83
2022/08/04 07:07:59;;;;;;;7.95;3.20;;;;;;;;;;4967431;28;20045;-81
2022/08/04 07:10:26;;;;;;;9.38;3.40;;;25.50;89.90;;;;;;4977842;28;20057;-82
2022/08/04 07:12:53;;;;;;;9.70;3.50;;;25.50;89.50;;;;;;4977203;28;20031;-82
2022/08/04 07:15:20;;;;;;;7.57;3.25;;;25.50;90.00;;;;;;4983622;28;20099;-82
2022/08/04 07:17:47;;;;;;;7.15;3.42;;;25.70;89.80;;;;;;4978082;28;20084;-82
2022/08/04 07:20:13;;;;;;;6.80;2.80;;;25.80;88.40;;;;;;4981216;28;20034;-79
2022/08/04 07:22:42;;;;;;;7.85;2.72;;;26.00;86.90;;;;;;4994064;28;20133;-82
2022/08/04 07:25:09;;;;;;;7.15;2.90;;;26.10;85.70;;;;;;4994507;28;20104;-82
2022/08/04 07:27:35;;;;;;;4.03;2.80;;;26.30;85.60;;;;;;4993798;28;20393;-81
2022/08/04 07:30:04;;;;;;;6.32;2.90;;;26.50;84.80;;;;;;4980655;28;20040;-81
2022/08/04 07:32:31;;;;;;;5.18;2.67;;;26.80;82.80;;;;;;4977997;28;21125;-81
2022/08/04 07:34:58;;;;;;;5.03;2.53;;;26.90;81.90;;;;;;4989967;28;20038;-84
2022/08/04 07:37:24;;;;;;;7.22;2.33;;;;;;;;;;4978618;28;20026;-84
2022/08/04 07:39:50;;;;;;;4.47;2.28;;;;;;;;;;4975447;28;20041;-81
2022/08/04 07:42:20;;;;;;;7.47;2.40;;;27.40;79.80;;;;;;4995992;28;20049;-80
2022/08/04 07:44:46;;;;;;;3.67;2.47;;;27.50;80.40;;;;;;4979365;28;20026;-80
2022/08/04 07:47:12;;;;;;;4.78;2.40;;;27.80;80.60;;;;;;4990112;28;20036;-82
2022/08/04 07:49:39;;;;;;;5.35;2.47;;;28.00;79.50;;;;;;4975032;28;20124;-81
2022/08/04 07:52:06;;;;;;;4.00;2.60;;;;;;;;;;4973515;28;20120;-81
2022/08/04 07:54:32;;;;;;;8.57;2.75;;;28.30;77.80;;;;;;4980795;28;20045;-82
2022/08/04 07:56:58;;;;;;;5.13;2.50;;;;;;;;;;4993122;28;20058;-81
2022/08/04 07:59:25;;;;;;;5.57;2.60;;;;;;;;;;4989043;28;20060;-81
2022/08/04 08:01:51;;;;;;;5.00;2.50;;;28.40;76.80;;;;;;4988264;28;20037;-81
2022/08/04 08:04:18;;;;;;;4.03;2.40;;;28.40;77.30;;;;;;4987050;28;20093;-81
2022/08/04 08:06:44;;;;;;;6.55;2.30;;;;;;;;;;4973489;28;20083;-79
2022/08/04 08:09:13;;;;;;;5.80;2.40;;;28.80;76.70;;;;;;4985156;28;20026;-79
2022/08/04 08:11:40;;;;;;;7.80;2.63;;;28.80;77.10;;;;;;4987897;28;20022;-81
2022/08/04 08:14:07;;;;;;;3.42;2.30;;;28.90;76.70;;;;;;4972666;28;20035;-80
2022/08/04 08:16:34;;;;;;;5.90;2.38;;;29.20;75.70;;;;;;4976649;28;20048;-79
2022/08/04 08:19:00;;;;;;;7.43;2.58;;;29.20;76.20;;;;;;4972740;28;20027;-80
2022/08/04 08:21:26;;;;;;;4.95;2.30;;;29.40;75.50;;;;;;4971528;28;20037;-80
2022/08/04 08:23:52;;;;;;;6.82;2.75;;;29.50;73.80;;;;;;4976422;28;20042;-81
2022/08/04 08:26:17;;;;;;;4.57;2.28;;;29.60;73.30;;;;;;4976302;28;20022;-81
2022/08/04 08:28:44;;;;;;;3.88;2.33;;;29.90;72.70;;;;;;4967305;28;20114;-83
2022/08/04 08:31:09;;;;;;;4.50;2.50;;;29.90;73.20;;;;;;4992998;28;20030;-81
2022/08/04 08:33:35;;;;;;;5.32;2.97;;;30.10;73.10;;;;;;4992090;28;20038;-81
2022/08/04 08:36:08;;;;;;;6.85;2.83;;;30.10;72.20;;;;;;4973473;28;20038;-80
2022/08/04 08:39:09;;;;;;;4.38;2.70;;;30.00;71.50;;;;;;4989395;28;20037;-81
2022/08/04 08:41:57;;;;;;;5.38;3.03;;;30.00;71.90;;;;;;4976370;28;20121;-80
2022/08/04 08:44:35;;;;;;;6.57;2.67;;;30.10;72.30;;;;;;4935121;28;20141;-81
2022/08/04 08:47:33;;;;;;;6.78;2.45;;;30.30;71.50;;;;;;4971381;28;20094;-80
2022/08/04 08:50:25;;;;;;;3.60;2.30;;;30.50;70.70;;;;;;4952606;28;20062;-81
2022/08/04 08:53:15;;;;;;;4.75;2.80;;;30.60;70.60;;;;;;4972607;28;20030;-81
2022/08/04 08:56:12;;;;;;;5.50;2.58;;;30.70;71.40;;;;;;4988022;28;20054;-84
2022/08/04 08:59:19;;;;;;;5.75;2.60;;;30.80;69.40;;;;;;4991846;28;20057;-84
2022/08/04 09:02:05;;;;;;;6.97;2.53;;;30.90;70.20;;;;;;4971937;28;20027;-80
2022/08/04 09:04:49;;;;;;;3.50;2.30;;;31.00;69.60;;;;;;4992978;28;20026;-81
2022/08/04 09:07:23;;;;;;;3.90;2.83;;;31.10;70.00;;;;;;4991452;28;20799;-79
2022/08/04 09:10:11;;;;;;;5.43;2.47;;;31.20;69.30;;;;;;4974144;28;20036;-79
2022/08/04 09:12:54;;;;;;;5.90;2.50;;;31.40;68.80;;;;;;4988771;28;20031;-82
2022/08/04 09:15:38;;;;;;;6.13;2.50;;;31.50;68.50;;;;;;4990987;28;20043;-82
2022/08/04 09:18:19;;;;;;;5.25;2.60;;;31.60;68.50;;;;;;4972497;28;20096;-81
2022/08/04 09:20:48;;;;;;;6.88;2.40;;;31.70;67.90;;;;;;4974956;28;20048;-80
2022/08/04 09:23:50;;;;;;;4.15;2.47;;;31.80;68.40;;;;;;4987988;28;20029;-81
2022/08/04 09:26:38;;;;;;;8.50;2.40;;;31.90;68.00;;;;;;4950211;28;20141;-80
2022/08/04 09:29:06;;;;;;;4.20;2.60;;;32.10;67.40;;;;;;4975795;28;20026;-81
2022/08/04 09:31:52;;;;;;;6.22;2.63;;;32.40;67.00;;;;;;4972660;28;20109;-79
2022/08/04 09:34:31;;;;;;;4.10;2.35;;;32.50;66.20;;;;;;4949072;28;20034;-81
2022/08/04 09:37:42;;;;;;;6.15;2.50;;;32.60;64.60;;;;;;4967928;28;20038;-82
2022/08/04 09:40:15;;;;;;;4.10;2.40;;;32.60;65.30;;;;;;4987419;28;20049;-83
2022/08/04 09:42:51;;;;;;;4.75;2.20;;;32.80;65.80;;;;;;4970134;28;20030;-81
2022/08/04 09:45:49;;;;;;;7.43;2.67;;;32.80;65.50;;;;;;4972139;28;20033;-82
2022/08/04 09:48:47;;;;;;;4.05;2.35;;;32.90;65.50;;;;;;4990659;28;20050;-82
2022/08/04 09:51:54;;;;;;;8.70;2.13;;;33.00;64.00;;;;;;4986472;28;20053;-82
2022/08/04 09:54:44;;;;;;;3.42;2.00;;;33.20;61.50;;;;;;4988769;28;20030;-82
2022/08/04 09:57:25;;;;;;;5.72;2.70;;;33.40;61.10;;;;;;4985711;28;20030;-81
2022/08/04 10:00:03;;;;;;;5.85;2.22;;;33.50;61.60;;;;;;4967362;28;20030;-80
2022/08/04 10:02:35;;;;;;;4.72;1.52;;;33.50;60.30;;;;;;4988203;28;20026;-80
2022/08/04 10:05:04;;;;;;;3.72;2.00;;;33.80;58.50;;;;;;4989105;28;20125;-81
2022/08/04 10:08:01;;;;;;;2.75;1.80;;;34.10;57.40;;;;;;4988589;28;20034;-80
2022/08/04 10:10:40;;;;;;;6.70;1.80;;;34.20;58.30;;;;;;4985443;28;20046;-80
2022/08/04 10:13:08;;;;;;;;;;;34.20;57.70;;;;;;4967145;28;20105;-80
2022/08/04 10:16:05;;;;;;;3.05;1.58;;;34.20;58.80;;;;;;4968401;28;19910;-82
2022/08/04 10:18:51;;;;;;;2.90;1.60;;;34.30;57.00;;;;;;4970810;28;20032;-80
2022/08/04 10:21:16;;;;;;;2.65;1.67;;;34.40;57.30;;;;;;4986953;28;20117;-80
2022/08/04 10:23:57;;;;;;;4.25;1.70;;;34.70;56.30;;;;;;4967577;28;20565;-81
2022/08/04 10:26:46;;;;;;;3.47;1.67;;;34.70;56.60;;;;;;4986980;28;20069;-80
2022/08/04 10:29:23;;;;;;;2.35;1.45;;;34.70;57.50;;;;;;4984835;28;20026;-82
2022/08/04 10:32:26;;;;;;;3.67;1.70;;;34.80;55.30;;;;;;4970810;28;20037;-81
2022/08/04 10:35:14;;;;;;;1.80;1.20;;;34.90;55.00;;;;;;4989081;28;20081;-82
2022/08/04 10:38:00;;;;;;;4.20;1.48;;;35.10;54.60;;;;;;4991130;28;20030;-82
2022/08/04 10:40:35;;;;;;;4.55;1.35;;;35.20;54.20;;;;;;4992147;28;20031;-82
2022/08/04 10:43:23;;;;;;;7.78;2.28;;;35.30;53.60;;;;;;4977204;28;20072;-82
2022/08/04 10:46:04;;;;;;;4.53;1.25;;;35.30;54.10;;;;;;4968242;28;20069;-82
2022/08/04 10:48:35;;;;;;;4.05;1.48;;;35.30;54.00;;;;;;4976494;28;20045;-82
2022/08/04 10:51:35;;;;;;;6.05;1.50;;;35.20;53.70;;;;;;4973254;28;20500;-81
2022/08/04 10:54:12;;;;;;;2.45;1.30;;;35.10;53.30;;;;;;4992447;28;20030;-80
2022/08/04 10:56:42;;;;;;;4.47;1.75;;;35.20;53.30;;;;;;4971315;28;20396;-80
2022/08/04 10:59:20;;;;;;;3.20;1.45;;;35.30;53.20;;;;;;4988272;28;20038;-82
2022/08/04 11:01:49;;;;;;;2.33;1.60;;;35.30;53.10;;;;;;4992351;28;20038;-79
2022/08/04 11:04:24;;;;;;;3.20;1.35;;;35.50;51.90;;;;;;4986743;28;20023;-81
2022/08/04 11:06:51;;;;;;;1.85;1.30;;;35.60;52.40;;;;;;4985055;28;20022;-81
2022/08/04 11:09:17;;;;;;;5.88;1.40;;;35.70;51.70;;;;;;4991568;28;20522;-79
2022/08/04 11:11:53;;;;;;;5.95;1.50;;;35.80;53.20;;;;;;4970729;28;20066;-79
2022/08/04 11:14:26;;;;;;;3.67;1.40;;;36.00;51.90;;;;;;4968342;28;20034;-81
2022/08/04 11:17:02;;;;;;;8.25;1.60;;;36.00;52.60;;;;;;4991460;28;20060;-82
2022/08/04 11:19:36;;;;;;;3.60;1.50;;;36.00;51.90;;;;;;4984186;28;20039;-80
2022/08/04 11:22:08;;;;;;;3.60;1.30;;;36.30;52.90;;;;;;4993989;28;20022;-80
2022/08/04 11:24:39;;;;;;;4.82;1.67;;;36.90;52.90;;;;;;4971125;28;20072;-81
2022/08/04 11:27:12;;;;;;;3.90;1.60;;;35.90;51.60;;;;;;4989516;28;20030;-81
2022/08/04 11:30:06;;;;;;;2.35;1.60;;;35.90;51.80;;;;;;4962540;28;20072;-81
2022/08/04 11:33:10;;;;;;;3.53;1.20;;;35.90;51.90;;;;;;4986667;28;20565;-80
2022/08/04 11:35:51;;;;;;;5.30;1.55;;;35.80;52.50;;;;;;4968870;28;20050;-81
2022/08/04 11:38:26;;;;;;;4.18;1.88;;;35.80;52.50;;;;;;4985176;28;20037;-80
2022/08/04 11:41:00;;;;;;;3.90;1.48;;;35.80;52.10;;;;;;4965210;28;20031;-81
2022/08/04 11:43:35;;;;;;;5.57;1.30;;;35.90;52.00;;;;;;4969700;28;20057;-80
2022/08/04 11:46:08;;;;;;;6.93;1.38;;;36.10;51.10;;;;;;4988551;28;20030;-80
2022/08/04 11:48:59;;;;;;;4.47;1.42;;;36.20;50.90;;;;;;4985963;28;20034;-80
2022/08/04 11:51:27;;;;;;;3.22;1.58;;;36.10;51.30;;;;;;4992616;28;20074;-81
2022/08/04 11:53:54;;;;;;;1.67;1.30;;;36.40;50.70;;;;;;4985748;28;20030;-79
2022/08/04 11:56:20;;;;;;;1.90;1.30;;;36.50;49.80;;;;;;4983892;28;20034;-81
2022/08/04 11:58:46;;;;;;;3.38;1.30;;;36.50;49.80;;;;;;4991174;28;20069;-81
2022/08/04 12:01:34;;;;;;;6.90;1.20;;;36.50;50.30;;;;;;4983993;28;20034;-79
2022/08/04 12:04:25;;;;;;;3.35;1.45;;;36.50;50.70;;;;;;4988475;28;20385;-80
2022/08/04 12:07:10;;;;;;;3.00;1.33;;;36.50;50.90;;;;;;5007921;28;20578;-81
2022/08/04 12:10:02;;;;;;;3.30;1.50;;;36.40;49.30;;;;;;4999065;28;20084;-82
2022/08/04 12:12:36;;;;;;;1.88;1.30;;;36.40;49.00;;;;;;4996460;28;20029;-80
2022/08/04 12:15:16;;;;;;;2.80;1.30;;;36.30;50.30;;;;;;4990711;28;20167;-82
2022/08/04 12:17:53;;;;;;;6.70;1.70;;;36.30;50.50;;;;;;4987714;28;20015;-82
2022/08/04 12:20:23;;;;;;;2.88;1.30;;;36.20;50.80;;;;;;4990677;28;20049;-80
2022/08/04 12:22:51;;;;;;;5.18;1.80;;;36.20;49.80;;;;;;4992447;28;20030;-81
2022/08/04 12:25:28;;;;;;;4.07;1.30;;;36.30;50.10;;;;;;4995346;28;20108;-81
2022/08/04 12:28:21;;;;;;;2.17;1.23;;;36.20;49.50;;;;;;4970797;28;20054;-81
2022/08/04 12:30:56;;;;;;;4.10;1.40;;;36.30;49.30;;;;;;4969647;28;20038;-80
2022/08/04 12:34:01;;;;;;;3.40;1.30;;;36.30;48.90;;;;;;4986959;28;20414;-81
2022/08/04 12:36:54;;;;;;;3.58;1.38;;;36.20;49.80;;;;;;4950861;28;20045;-82
2022/08/04 12:39:21;;;;;;;5.38;1.30;;;36.40;50.20;;;;;;4988369;28;20587;-80
2022/08/04 12:42:03;;;;;;;2.75;1.30;;;36.50;49.10;;;;;;4976905;28;20041;-82
2022/08/04 12:44:37;;;;;;;3.30;1.50;;;36.70;48.70;;;;;;4989912;28;20412;-81
2022/08/04 12:47:14;;;;;;;2.60;1.30;;;36.70;48.50;;;;;;4972764;28;20484;-81
2022/08/04 12:49:43;;;;;;;2.10;1.30;;;36.80;48.80;;;;;;4969687;28;20038;-82
2022/08/04 12:52:13;;;;;;;2.08;1.23;;;36.90;48.50;;;;;;4976973;28;20034;-82
2022/08/04 12:54:42;;;;;;;2.60;1.30;;;36.90;48.30;;;;;;4953213;28;20057;-82
2022/08/04 12:57:09;;;;;;;2.75;1.30;;;36.90;48.20;;;;;;4994692;28;20097;-82
2022/08/04 12:59:39;;;;;;;2.08;1.65;;;37.00;48.00;;;;;;4990689;28;20038;-82
2022/08/04 13:02:15;;;;;;;2.15;1.60;;;37.00;48.10;;;;;;4977485;28;20096;-82
2022/08/04 13:04:43;;;;;;;2.47;1.40;;;37.10;47.80;;;;;;4972303;28;20808;-81
2022/08/04 13:07:18;;;;;;;3.17;1.52;;;37.30;47.20;;;;;;4969434;28;20022;-80
2022/08/04 13:09:45;;;;;;;4.18;1.30;;;37.20;47.40;;;;;;4984294;28;20060;-80
2022/08/04 13:12:16;;;;;;;3.90;1.50;;;37.30;47.20;;;;;;4955992;28;20040;-81
2022/08/04 13:14:44;;;;;;;2.25;1.25;;;37.30;47.40;;;;;;4991383;28;20022;-81
2022/08/04 13:17:13;;;;;;;2.00;1.42;;;37.40;46.60;;;;;;4988839;28;20034;-80
2022/08/04 13:19:53;;;;;;;2.47;1.27;;;37.40;47.10;;;;;;4968335;28;20034;-80
2022/08/04 13:22:27;;;;;;;3.92;1.50;;;37.40;46.90;;;;;;4987588;28;20464;-81
2022/08/04 13:24:56;;;;;;;3.70;1.17;;;37.30;46.70;;;;;;4972564;28;20022;-82
2022/08/04 13:27:23;;;;;;;2.58;1.33;;;37.40;46.60;;;;;;4972381;28;20041;-81
2022/08/04 13:29:54;;;;;;;2.30;1.15;;;37.40;46.40;;;;;;4969166;28;20035;-81
2022/08/04 13:32:21;;;;;;;2.65;1.33;;;37.40;46.60;;;;;;4978398;28;20041;-81
2022/08/04 13:34:50;;;;;;;4.40;1.60;;;36.90;47.40;;;;;;4991186;28;20045;-82
2022/08/04 13:37:19;;;;;;;4.60;1.40;;;36.50;47.80;;;;;;4993338;28;20522;-80
2022/08/04 13:39:48;;;;;;;3.03;1.33;;;36.90;47.80;;;;;;4978003;28;20033;-81
2022/08/04 13:42:15;;;;;;;4.90;1.52;;;37.00;48.20;;;;;;4990630;28;20128;-80
2022/08/04 13:44:47;;;;;;;4.55;1.80;;;37.20;48.40;;;;;;4956811;28;20034;-81